Time;durP1;ratioP1;P1;durP2;ratioP2;P2;SDS_P1;SDS_P2;PMS_P1;PMS_P2;Temp;Humidity;BMP_temperature;BMP_pressure;BME280_temperature;BME280_humidity;BME280_pressure;Samples;Min_cycle;Max_cycle;Signal;HPM_P1;HPM_P2
2023/12/22 00:13:19;;;;;;;8.57;6.28;;;;;;;20.46;54.42;97915.38;41651334;28;20053;-70
2023/12/22 00:33:21;;;;;;;6.80;5.82;;;;;;;20.47;54.45;97987.19;41637544;28;20580;-68
2023/12/22 00:53:22;;;;;;;7.40;5.75;;;;;;;20.45;53.65;98011.00;41663763;28;20088;-68
2023/12/22 01:13:22;;;;;;;6.25;5.20;;;;;;;20.43;53.70;97964.84;41674557;28;20045;-69
2023/12/22 01:33:30;;;;;;;5.45;4.57;;;;;;;20.38;54.31;98032.91;41667363;28;20080;-70
2023/12/22 01:53:32;;;;;;;5.50;4.45;;;;;;;20.31;54.55;98009.94;41660257;28;20042;-70
2023/12/22 02:13:32;;;;;;;4.80;4.22;;;;;;;20.34;54.44;97945.69;41662254;28;20061;-69
2023/12/22 02:33:36;;;;;;;4.70;3.47;;;;;;;20.37;54.01;97931.38;41664588;28;20480;-67
2023/12/22 02:53:36;;;;;;;4.03;3.40;;;;;;;20.31;53.92;97994.16;41631188;28;20160;-69
2023/12/22 03:13:36;;;;;;;4.13;3.50;;;;;;;20.35;54.04;97957.84;41652214;28;20056;-70
2023/12/22 03:33:37;;;;;;;3.08;2.78;;;;;;;20.33;54.18;97993.16;41664195;28;20068;-69
2023/12/22 03:53:39;;;;;;;2.75;2.50;;;;;;;20.35;54.14;98023.53;41656389;28;20508;-69
2023/12/22 04:13:39;;;;;;;2.83;2.40;;;;;;;20.30;53.54;98037.19;41654798;28;20049;-69
2023/12/22 04:33:39;;;;;;;2.83;2.05;;;;;;;20.38;53.14;98096.78;41671228;28;20052;-71
2023/12/22 04:53:40;;;;;;;2.17;1.95;;;;;;;20.37;52.77;98099.59;41678840;28;20051;-70
2023/12/22 05:13:42;;;;;;;2.20;1.90;;;;;;;20.50;52.96;98120.91;41683806;28;20403;-69
2023/12/22 05:33:42;;;;;;;2.70;1.80;;;;;;;21.15;51.47;98149.75;41651227;28;20037;-69
2023/12/22 05:53:42;;;;;;;2.53;1.70;;;;;;;21.24;50.87;98153.97;41634676;28;20042;-70
2023/12/22 06:13:43;;;;;;;10.27;2.67;;;;;;;21.08;50.19;98184.66;41657315;28;20060;-69
2023/12/22 06:33:43;;;;;;;4.97;2.40;;;;;;;21.25;50.34;98222.25;41650694;28;20049;-68
2023/12/22 06:53:45;;;;;;;6.15;1.90;;;;;;;21.30;50.08;98224.38;41656742;28;20399;-69
2023/12/22 07:13:45;;;;;;;5.38;2.10;;;;;;;21.42;50.12;98264.25;41665130;28;20049;-70
2023/12/22 07:33:46;;;;;;;5.47;2.97;;;;;;;21.44;49.83;98292.06;41628038;28;20053;-71
2023/12/22 07:53:46;;;;;;;13.52;5.85;;;;;;;21.36;49.65;98302.66;41613366;28;20053;-71
2023/12/22 08:13:47;;;;;;;11.50;8.55;;;;;;;21.46;49.24;98299.81;41693172;28;22701;-70
2023/12/22 08:33:48;;;;;;;21.05;9.93;;;;;;;21.61;49.52;98320.19;41673250;28;21857;-69
2023/12/22 08:53:57;;;;;;;16.42;10.80;;;;;;;21.72;49.40;98344.31;41713861;28;20583;-72
2023/12/22 09:13:57;;;;;;;13.63;10.20;;;;;;;;;;41697495;28;20060;-71
2023/12/22 09:33:59;;;;;;;13.40;10.23;;;;;;;;;;41696065;28;20060;-72
2023/12/22 09:54:02;;;;;;;19.25;11.43;;;;;;;21.73;48.48;98342.50;41694150;28;20102;-74
2023/12/22 10:14:05;;;;;;;16.25;11.35;;;;;;;21.72;48.11;98330.31;41683592;28;20113;-72
2023/12/22 10:34:05;;;;;;;16.02;9.23;;;;;;;21.63;44.81;98302.38;41689905;28;20108;-72
2023/12/22 10:54:05;;;;;;;15.30;8.18;;;;;;;21.82;46.50;98272.16;41664300;28;20048;-70
2023/12/22 11:14:07;;;;;;;13.73;9.00;;;;;;;22.21;47.40;98279.13;41694220;28;20468;-71
2023/12/22 11:34:08;;;;;;;18.45;8.45;;;;;;;22.27;47.14;98252.06;41657194;28;20049;-72
2023/12/22 11:54:46;;;;;;;17.48;9.63;;;;;;;22.05;48.07;98262.44;41651078;28;20045;-71
2023/12/22 12:14:54;;;;;;;23.05;10.15;;;;;;;22.06;47.73;98279.88;41660887;28;20545;-71
2023/12/22 12:34:56;;;;;;;16.02;10.93;;;;;;;22.03;49.28;98287.31;41632180;28;20069;-69
2023/12/22 12:54:58;;;;;;;14.93;10.10;;;;;;;22.02;51.72;98338.38;41669702;28;20053;-70
2023/12/22 13:15:02;;;;;;;17.15;9.20;;;;;;;21.97;51.33;98385.53;41664626;28;20045;-69
2023/12/22 13:35:04;;;;;;;10.93;8.40;;;;;;;21.89;50.94;98312.63;41639894;28;20072;-69
2023/12/22 13:55:12;;;;;;;8.98;6.95;;;;;;;21.91;50.58;98292.19;41652175;28;20562;-67
2023/12/22 14:15:13;;;;;;;8.70;6.07;;;;;;;21.68;50.09;98295.63;41661864;28;20056;-67
2023/12/22 14:35:14;;;;;;;6.70;5.30;;;;;;;21.75;49.81;98309.72;41670087;28;20052;-71
2023/12/22 14:55:16;;;;;;;7.03;4.18;;;;;;;21.66;50.52;98358.16;41662146;28;20048;-70
2023/12/22 15:15:17;;;;;;;5.82;3.70;;;;;;;21.52;49.57;98357.06;41686919;28;20072;-70
2023/12/22 15:35:17;;;;;;;7.13;3.28;;;;;;;21.52;49.36;98398.34;41660041;28;20060;-69
2023/12/22 15:55:17;;;;;;;5.68;3.30;;;;;;;21.51;50.37;98409.91;41665279;28;20114;-69
2023/12/22 16:15:18;;;;;;;5.40;2.78;;;;;;;21.49;51.16;98411.88;41655215;28;20040;-69
2023/12/22 16:35:18;;;;;;;7.28;2.53;;;;;;;21.74;50.92;98418.72;41679637;28;20048;-71
2023/12/22 16:55:19;;;;;;;5.38;2.42;;;;;;;21.59;50.96;98410.72;41700833;28;20049;-69
2023/12/22 17:15:19;;;;;;;4.75;2.00;;;;;;;21.62;50.72;98430.63;41672744;28;20045;-67
2023/12/22 17:35:20;;;;;;;5.30;2.40;;;;;;;21.85;50.73;98432.50;41688106;28;20055;-69
2023/12/22 17:55:20;;;;;;;10.18;4.95;;;;;;;21.94;51.39;98430.69;41665193;28;20052;-73
2023/12/22 18:15:21;;;;;;;17.55;13.40;;;;;;;21.82;52.70;98438.94;41623290;28;1083325;-70
2023/12/22 18:35:22;;;;;;;18.73;12.93;;;;;;;21.48;52.01;98487.38;41680929;28;20041;-71
2023/12/22 18:55:22;;;;;;;13.38;9.63;;;;;;;21.38;52.15;98465.69;41664401;28;20506;-73
2023/12/22 19:15:24;;;;;;;12.88;8.13;;;;;;;21.24;52.37;98396.94;41683678;28;20719;-70
2023/12/22 19:35:24;;;;;;;10.93;7.05;;;;;;;21.00;50.72;98368.03;41665820;28;20042;-71
2023/12/22 19:55:25;;;;;;;9.73;6.10;;;;;;;21.03;51.61;98346.66;41660993;28;20393;-71
2023/12/22 20:15:26;;;;;;;7.85;5.35;;;;;;;20.99;52.17;98361.94;41670926;28;20127;-70
2023/12/22 20:35:26;;;;;;;8.20;5.65;;;;;;;21.03;52.05;98368.53;41648742;28;20049;-72
2023/12/22 20:55:27;;;;;;;12.68;4.90;;;;;;;20.97;51.98;98329.75;41651889;28;20041;-68
2023/12/22 21:15:27;;;;;;;6.00;4.50;;;;;;;20.91;51.85;98304.91;41684905;28;20064;-70
2023/12/22 21:35:28;;;;;;;7.85;4.22;;;;;;;20.81;53.09;98351.59;41673080;28;20753;-69
2023/12/22 21:55:30;;;;;;;4.05;3.30;;;;;;;20.74;53.50;98398.00;41682228;28;20057;-70
2023/12/22 22:15:30;;;;;;;4.82;3.05;;;;;;;20.64;54.09;98408.63;41670850;28;20750;-70
2023/12/22 22:35:31;;;;;;;4.65;3.05;;;;;;;20.62;54.39;98414.03;41670974;28;20127;-69
2023/12/22 22:55:31;;;;;;;2.65;2.30;;;;;;;20.58;54.59;98404.00;41658291;28;20049;-68
2023/12/22 23:15:31;;;;;;;3.80;2.67;;;;;;;20.58;54.79;98423.25;41663451;28;20058;-70
2023/12/22 23:35:32;;;;;;;2.20;2.00;;;;;;;20.52;54.99;98436.22;41662341;28;20041;-69
2023/12/22 23:55:32;;;;;;;2.00;1.80;;;;;;;20.52;55.17;98446.72;41658403;28;20411;-70
